sensor_id;sensor_type;location;lat;lon;timestamp;pressure;altitude;pressure_sealevel;temperature;humidity
74834;BME280;63361;52.384;20.930;2023-04-03T00:01:05;101299.03;;;0.51;95.61
74834;BME280;63361;52.384;20.930;2023-04-03T00:03:31;101303.97;;;0.54;95.60
74834;BME280;63361;52.384;20.930;2023-04-03T00:05:56;101302.06;;;0.48;95.03
74834;BME280;63361;52.384;20.930;2023-04-03T00:08:22;101301.50;;;0.53;94.37
74834;BME280;63361;52.384;20.930;2023-04-03T00:10:48;101308.41;;;0.47;94.12
74834;BME280;63361;52.384;20.930;2023-04-03T00:13:13;101306.56;;;0.48;93.26
74834;BME280;63361;52.384;20.930;2023-04-03T00:15:40;101299.41;;;0.48;93.74
74834;BME280;63361;52.384;20.930;2023-04-03T00:18:05;101301.84;;;0.43;93.54
74834;BME280;63361;52.384;20.930;2023-04-03T00:20:31;101319.00;;;0.47;93.50
74834;BME280;63361;52.384;20.930;2023-04-03T00:22:57;101324.03;;;0.57;91.95
74834;BME280;63361;52.384;20.930;2023-04-03T00:25:22;101326.75;;;0.42;93.53
74834;BME280;63361;52.384;20.930;2023-04-03T00:27:48;101328.13;;;0.38;93.04
74834;BME280;63361;52.384;20.930;2023-04-03T00:30:16;101330.16;;;0.36;93.84
74834;BME280;63361;52.384;20.930;2023-04-03T00:32:42;101306.81;;;0.31;93.33
74834;BME280;63361;52.384;20.930;2023-04-03T00:35:08;101309.88;;;0.28;93.11
74834;BME280;63361;52.384;20.930;2023-04-03T00:37:33;101325.38;;;0.25;93.71
74834;BME280;63361;52.384;20.930;2023-04-03T00:40:00;101324.81;;;0.29;93.92
74834;BME280;63361;52.384;20.930;2023-04-03T00:42:25;101328.66;;;0.27;93.32
74834;BME280;63361;52.384;20.930;2023-04-03T00:47:22;101326.06;;;0.12;93.73
74834;BME280;63361;52.384;20.930;2023-04-03T00:49:49;101324.50;;;0.03;93.67
74834;BME280;63361;52.384;20.930;2023-04-03T00:52:17;101326.09;;;-0.03;93.61
74834;BME280;63361;52.384;20.930;2023-04-03T00:54:45;101327.31;;;-0.05;93.95
74834;BME280;63361;52.384;20.930;2023-04-03T00:57:13;101315.03;;;-0.06;93.56
74834;BME280;63361;52.384;20.930;2023-04-03T00:59:43;101321.38;;;-0.22;95.00
74834;BME280;63361;52.384;20.930;2023-04-03T01:02:10;101350.19;;;-0.04;95.37
74834;BME280;63361;52.384;20.930;2023-04-03T01:04:37;101322.72;;;-0.11;94.71
74834;BME280;63361;52.384;20.930;2023-04-03T01:07:16;101343.50;;;-0.15;95.48
74834;BME280;63361;52.384;20.930;2023-04-03T01:09:44;101346.00;;;-0.28;96.21
74834;BME280;63361;52.384;20.930;2023-04-03T01:12:25;101355.78;;;-0.28;96.32
74834;BME280;63361;52.384;20.930;2023-04-03T01:14:56;101346.75;;;-0.34;96.47
74834;BME280;63361;52.384;20.930;2023-04-03T01:25:53;101352.78;;;-0.40;95.69
74834;BME280;63361;52.384;20.930;2023-04-03T01:28:22;101376.59;;;-0.61;97.80
74834;BME280;63361;52.384;20.930;2023-04-03T01:33:32;101377.00;;;-0.28;95.72
74834;BME280;63361;52.384;20.930;2023-04-03T01:35:57;101371.28;;;-0.47;96.12
74834;BME280;63361;52.384;20.930;2023-04-03T01:38:23;101386.63;;;-0.42;95.98
74834;BME280;63361;52.384;20.930;2023-04-03T01:40:48;101391.75;;;-0.41;96.09
74834;BME280;63361;52.384;20.930;2023-04-03T01:43:14;101388.09;;;-0.54;96.42
74834;BME280;63361;52.384;20.930;2023-04-03T01:45:39;101373.84;;;-0.68;96.72
74834;BME280;63361;52.384;20.930;2023-04-03T01:48:05;101381.50;;;-0.58;96.72
74834;BME280;63361;52.384;20.930;2023-04-03T01:50:30;101377.78;;;-0.64;96.76
74834;BME280;63361;52.384;20.930;2023-04-03T01:52:56;101391.94;;;-0.57;97.02
74834;BME280;63361;52.384;20.930;2023-04-03T01:55:21;101370.06;;;-0.74;96.81
74834;BME280;63361;52.384;20.930;2023-04-03T01:57:46;101383.31;;;-0.88;97.62
74834;BME280;63361;52.384;20.930;2023-04-03T02:00:12;101379.00;;;-0.89;98.55
74834;BME280;63361;52.384;20.930;2023-04-03T02:02:38;101381.84;;;-0.76;96.93
74834;BME280;63361;52.384;20.930;2023-04-03T02:05:03;101387.72;;;-0.66;96.87
74834;BME280;63361;52.384;20.930;2023-04-03T02:07:29;101384.25;;;-0.81;97.31
74834;BME280;63361;52.384;20.930;2023-04-03T02:09:54;101394.09;;;-0.75;97.32
74834;BME280;63361;52.384;20.930;2023-04-03T02:12:20;101389.38;;;-0.80;97.79
74834;BME280;63361;52.384;20.930;2023-04-03T02:14:45;101400.97;;;-0.81;97.47
74834;BME280;63361;52.384;20.930;2023-04-03T02:17:10;101374.19;;;-0.86;97.38
74834;BME280;63361;52.384;20.930;2023-04-03T02:19:35;101398.31;;;-0.81;97.62
74834;BME280;63361;52.384;20.930;2023-04-03T02:22:02;101396.72;;;-0.90;97.72
74834;BME280;63361;52.384;20.930;2023-04-03T02:24:28;101400.66;;;-1.00;98.58
74834;BME280;63361;52.384;20.930;2023-04-03T02:26:53;101402.97;;;-1.20;99.42
74834;BME280;63361;52.384;20.930;2023-04-03T02:29:19;101411.91;;;-1.21;100.00
74834;BME280;63361;52.384;20.930;2023-04-03T02:31:44;101408.34;;;-1.28;100.00
74834;BME280;63361;52.384;20.930;2023-04-03T02:34:10;101415.03;;;-1.18;99.67
74834;BME280;63361;52.384;20.930;2023-04-03T02:36:35;101409.06;;;-0.97;98.05
74834;BME280;63361;52.384;20.930;2023-04-03T02:39:00;101406.47;;;-1.05;99.08
74834;BME280;63361;52.384;20.930;2023-04-03T02:41:26;101416.06;;;-1.04;98.67
74834;BME280;63361;52.384;20.930;2023-04-03T02:43:58;101402.78;;;-1.19;99.10
74834;BME280;63361;52.384;20.930;2023-04-03T02:46:24;101415.47;;;-1.29;99.85
74834;BME280;63361;52.384;20.930;2023-04-03T02:48:49;101424.22;;;-1.28;99.79
74834;BME280;63361;52.384;20.930;2023-04-03T02:51:14;101422.75;;;-1.31;100.00
74834;BME280;63361;52.384;20.930;2023-04-03T02:53:39;101425.41;;;-1.31;100.00
74834;BME280;63361;52.384;20.930;2023-04-03T02:56:05;101419.56;;;-1.49;100.00
74834;BME280;63361;52.384;20.930;2023-04-03T02:58:30;101441.59;;;-1.26;100.00
74834;BME280;63361;52.384;20.930;2023-04-03T03:00:55;101400.38;;;-1.51;100.00
74834;BME280;63361;52.384;20.930;2023-04-03T03:03:21;101441.47;;;-1.32;100.00
74834;BME280;63361;52.384;20.930;2023-04-03T03:05:46;101432.22;;;-1.36;100.00
74834;BME280;63361;52.384;20.930;2023-04-03T03:08:13;101427.81;;;-1.44;100.00
74834;BME280;63361;52.384;20.930;2023-04-03T03:10:38;101431.13;;;-1.42;100.00
74834;BME280;63361;52.384;20.930;2023-04-03T03:13:04;101446.34;;;-1.44;100.00
74834;BME280;63361;52.384;20.930;2023-04-03T03:15:29;101426.13;;;-1.68;100.00
74834;BME280;63361;52.384;20.930;2023-04-03T03:17:55;101434.69;;;-1.58;100.00
74834;BME280;63361;52.384;20.930;2023-04-03T03:20:20;101444.81;;;-1.61;100.00
74834;BME280;63361;52.384;20.930;2023-04-03T03:22:46;101424.53;;;-1.77;100.00
74834;BME280;63361;52.384;20.930;2023-04-03T03:25:11;101449.16;;;-1.68;100.00
74834;BME280;63361;52.384;20.930;2023-04-03T03:27:37;101442.22;;;-1.69;100.00
74834;BME280;63361;52.384;20.930;2023-04-03T03:30:03;101434.69;;;-1.89;100.00
74834;BME280;63361;52.384;20.930;2023-04-03T03:32:29;101441.09;;;-1.83;100.00
74834;BME280;63361;52.384;20.930;2023-04-03T03:34:54;101435.56;;;-1.96;100.00
74834;BME280;63361;52.384;20.930;2023-04-03T03:37:19;101444.47;;;-1.97;100.00
74834;BME280;63361;52.384;20.930;2023-04-03T03:39:45;101439.16;;;-1.89;100.00
74834;BME280;63361;52.384;20.930;2023-04-03T03:42:10;101412.19;;;-2.16;100.00
74834;BME280;63361;52.384;20.930;2023-04-03T03:44:36;101430.00;;;-2.09;100.00
74834;BME280;63361;52.384;20.930;2023-04-03T03:47:01;101445.97;;;-1.95;100.00
74834;BME280;63361;52.384;20.930;2023-04-03T03:49:28;101438.56;;;-1.99;100.00
74834;BME280;63361;52.384;20.930;2023-04-03T03:51:53;101437.75;;;-2.08;100.00
74834;BME280;63361;52.384;20.930;2023-04-03T03:54:18;101427.44;;;-1.95;100.00
74834;BME280;63361;52.384;20.930;2023-04-03T03:56:43;101449.25;;;-1.85;100.00
74834;BME280;63361;52.384;20.930;2023-04-03T03:59:11;101443.25;;;-1.79;100.00
74834;BME280;63361;52.384;20.930;2023-04-03T04:01:37;101449.31;;;-2.01;100.00
74834;BME280;63361;52.384;20.930;2023-04-03T04:04:02;101424.84;;;-2.03;100.00
74834;BME280;63361;52.384;20.930;2023-04-03T04:06:28;101454.56;;;-1.93;100.00
74834;BME280;63361;52.384;20.930;2023-04-03T04:08:53;101442.00;;;-1.68;100.00
74834;BME280;63361;52.384;20.930;2023-04-03T04:11:19;101439.50;;;-1.61;100.00
74834;BME280;63361;52.384;20.930;2023-04-03T04:13:45;101450.31;;;-1.71;100.00
74834;BME280;63361;52.384;20.930;2023-04-03T04:16:10;101445.69;;;-1.69;100.00
74834;BME280;63361;52.384;20.930;2023-04-03T04:18:35;101445.28;;;-1.58;100.00
74834;BME280;63361;52.384;20.930;2023-04-03T04:21:01;101450.59;;;-1.66;100.00
74834;BME280;63361;52.384;20.930;2023-04-03T04:23:26;101444.94;;;-1.55;100.00
74834;BME280;63361;52.384;20.930;2023-04-03T04:25:51;101462.75;;;-1.49;100.00
74834;BME280;63361;52.384;20.930;2023-04-03T04:28:17;101447.22;;;-1.52;100.00
74834;BME280;63361;52.384;20.930;2023-04-03T04:30:43;101455.28;;;-1.45;100.00
74834;BME280;63361;52.384;20.930;2023-04-03T04:33:09;101446.19;;;-1.43;100.00
74834;BME280;63361;52.384;20.930;2023-04-03T04:35:35;101474.66;;;-1.22;100.00
74834;BME280;63361;52.384;20.930;2023-04-03T04:38:00;101450.28;;;-1.17;100.00
74834;BME280;63361;52.384;20.930;2023-04-03T04:40:27;101471.59;;;-0.50;100.00
74834;BME280;63361;52.384;20.930;2023-04-03T04:42:52;101465.34;;;0.02;96.21
74834;BME280;63361;52.384;20.930;2023-04-03T04:45:18;101456.94;;;1.13;92.09
74834;BME280;63361;52.384;20.930;2023-04-03T04:47:43;101476.53;;;2.36;86.11
74834;BME280;63361;52.384;20.930;2023-04-03T04:50:09;101480.56;;;2.13;85.39
74834;BME280;63361;52.384;20.930;2023-04-03T04:52:35;101485.34;;;3.17;80.68
74834;BME280;63361;52.384;20.930;2023-04-03T04:55:00;101477.25;;;2.58;81.14
74834;BME280;63361;52.384;20.930;2023-04-03T04:57:26;101487.97;;;3.11;81.17
74834;BME280;63361;52.384;20.930;2023-04-03T04:59:51;101482.19;;;2.74;81.57
74834;BME280;63361;52.384;20.930;2023-04-03T05:02:16;101484.47;;;2.23;82.72
74834;BME280;63361;52.384;20.930;2023-04-03T05:04:42;101503.88;;;4.16;76.43
74834;BME280;63361;52.384;20.930;2023-04-03T05:07:07;101497.03;;;3.30;78.52
74834;BME280;63361;52.384;20.930;2023-04-03T05:09:32;101495.31;;;2.76;78.78
74834;BME280;63361;52.384;20.930;2023-04-03T05:11:58;101480.59;;;3.26;76.71
74834;BME280;63361;52.384;20.930;2023-04-03T05:14:23;101512.41;;;3.67;77.18
74834;BME280;63361;52.384;20.930;2023-04-03T05:16:49;101495.78;;;3.78;74.23
74834;BME280;63361;52.384;20.930;2023-04-03T05:19:18;101492.91;;;3.40;75.65
74834;BME280;63361;52.384;20.930;2023-04-03T05:21:43;101495.75;;;2.93;76.86
74834;BME280;63361;52.384;20.930;2023-04-03T05:24:08;101501.69;;;2.75;79.31
74834;BME280;63361;52.384;20.930;2023-04-03T05:26:34;101505.84;;;3.17;77.44
74834;BME280;63361;52.384;20.930;2023-04-03T05:29:00;101501.44;;;2.63;77.32
74834;BME280;63361;52.384;20.930;2023-04-03T05:31:26;101507.50;;;3.44;76.41
74834;BME280;63361;52.384;20.930;2023-04-03T05:33:54;101510.97;;;3.78;73.46
74834;BME280;63361;52.384;20.930;2023-04-03T05:36:20;101520.19;;;3.03;76.26
74834;BME280;63361;52.384;20.930;2023-04-03T05:38:45;101502.44;;;2.62;76.94
74834;BME280;63361;52.384;20.930;2023-04-03T05:41:11;101509.72;;;3.01;75.95
74834;BME280;63361;52.384;20.930;2023-04-03T05:43:36;101510.56;;;3.02;75.50
74834;BME280;63361;52.384;20.930;2023-04-03T05:46:04;101522.66;;;3.11;75.91
74834;BME280;63361;52.384;20.930;2023-04-03T05:48:31;101536.91;;;2.64;77.30
74834;BME280;63361;52.384;20.930;2023-04-03T05:50:57;101526.69;;;2.74;76.54
74834;BME280;63361;52.384;20.930;2023-04-03T05:53:28;101535.84;;;3.32;76.18
74834;BME280;63361;52.384;20.930;2023-04-03T05:55:54;101531.91;;;3.74;74.56
74834;BME280;63361;52.384;20.930;2023-04-03T05:58:20;101518.84;;;4.75;71.26
74834;BME280;63361;52.384;20.930;2023-04-03T06:00:45;101526.09;;;4.68;67.06
74834;BME280;63361;52.384;20.930;2023-04-03T06:03:10;101558.88;;;5.58;65.35
74834;BME280;63361;52.384;20.930;2023-04-03T06:05:36;101529.44;;;3.86;67.28
74834;BME280;63361;52.384;20.930;2023-04-03T06:08:02;101546.28;;;4.64;67.39
74834;BME280;63361;52.384;20.930;2023-04-03T06:10:28;101545.88;;;4.60;65.44
74834;BME280;63361;52.384;20.930;2023-04-03T06:12:53;101539.53;;;3.51;68.89
74834;BME280;63361;52.384;20.930;2023-04-03T06:15:19;101546.72;;;3.31;69.72
74834;BME280;63361;52.384;20.930;2023-04-03T06:17:45;101535.38;;;3.22;70.66
74834;BME280;63361;52.384;20.930;2023-04-03T06:20:11;101550.56;;;3.02;70.88
74834;BME280;63361;52.384;20.930;2023-04-03T06:22:37;101539.63;;;4.80;66.46
74834;BME280;63361;52.384;20.930;2023-04-03T06:25:03;101550.44;;;4.53;66.02
74834;BME280;63361;52.384;20.930;2023-04-03T06:27:28;101544.88;;;4.93;64.64
74834;BME280;63361;52.384;20.930;2023-04-03T06:29:53;101552.59;;;4.25;67.95
74834;BME280;63361;52.384;20.930;2023-04-03T06:32:19;101560.94;;;4.93;63.57
74834;BME280;63361;52.384;20.930;2023-04-03T06:34:45;101554.19;;;4.33;64.84
74834;BME280;63361;52.384;20.930;2023-04-03T06:37:18;101564.50;;;4.16;65.23
74834;BME280;63361;52.384;20.930;2023-04-03T06:39:44;101559.47;;;5.04;63.14
74834;BME280;63361;52.384;20.930;2023-04-03T06:42:10;101553.81;;;5.18;60.62
74834;BME280;63361;52.384;20.930;2023-04-03T06:44:36;101569.91;;;3.96;64.85
74834;BME280;63361;52.384;20.930;2023-04-03T06:47:01;101577.09;;;3.76;64.68
74834;BME280;63361;52.384;20.930;2023-04-03T06:49:27;101567.47;;;1.92;70.51
74834;BME280;63361;52.384;20.930;2023-04-03T06:51:53;101571.22;;;1.98;72.31
74834;BME280;63361;52.384;20.930;2023-04-03T06:54:19;101572.06;;;2.39;70.80
74834;BME280;63361;52.384;20.930;2023-04-03T06:56:44;101581.34;;;3.11;67.80
74834;BME280;63361;52.384;20.930;2023-04-03T06:59:12;101562.09;;;2.55;70.00
74834;BME280;63361;52.384;20.930;2023-04-03T07:01:38;101579.94;;;2.20;71.59
74834;BME280;63361;52.384;20.930;2023-04-03T07:04:04;101569.06;;;2.56;69.03
74834;BME280;63361;52.384;20.930;2023-04-03T07:06:30;101591.88;;;3.45;67.86
74834;BME280;63361;52.384;20.930;2023-04-03T07:08:56;101581.03;;;2.79;68.89
74834;BME280;63361;52.384;20.930;2023-04-03T07:11:22;101596.72;;;2.14;70.25
74834;BME280;63361;52.384;20.930;2023-04-03T07:13:48;101602.50;;;1.68;73.39
74834;BME280;63361;52.384;20.930;2023-04-03T07:16:13;101574.63;;;1.64;72.60
74834;BME280;63361;52.384;20.930;2023-04-03T07:18:39;101601.50;;;2.66;70.14
74834;BME280;63361;52.384;20.930;2023-04-03T07:21:04;101609.31;;;3.35;68.50
74834;BME280;63361;52.384;20.930;2023-04-03T07:23:30;101602.22;;;5.48;63.54
74834;BME280;63361;52.384;20.930;2023-04-03T07:25:55;101574.41;;;7.73;50.03
74834;BME280;63361;52.384;20.930;2023-04-03T07:28:22;101603.84;;;4.73;54.85
74834;BME280;63361;52.384;20.930;2023-04-03T07:31:00;101613.19;;;6.58;52.31
74834;BME280;63361;52.384;20.930;2023-04-03T07:33:26;101596.22;;;5.78;52.60
74834;BME280;63361;52.384;20.930;2023-04-03T07:35:51;101601.00;;;5.44;53.52
74834;BME280;63361;52.384;20.930;2023-04-03T07:38:17;101599.53;;;5.73;52.19
74834;BME280;63361;52.384;20.930;2023-04-03T07:40:50;101602.06;;;6.18;51.99
74834;BME280;63361;52.384;20.930;2023-04-03T07:43:17;101584.97;;;5.94;52.47
74834;BME280;63361;52.384;20.930;2023-04-03T07:45:43;101608.91;;;8.11;47.44
74834;BME280;63361;52.384;20.930;2023-04-03T07:48:12;101609.19;;;7.57;46.00
74834;BME280;63361;52.384;20.930;2023-04-03T07:50:41;101595.72;;;8.33;45.92
74834;BME280;63361;52.384;20.930;2023-04-03T07:53:07;101606.44;;;7.63;46.30
74834;BME280;63361;52.384;20.930;2023-04-03T07:55:32;101603.66;;;8.92;43.40
74834;BME280;63361;52.384;20.930;2023-04-03T07:57:58;101606.03;;;9.45;41.93
74834;BME280;63361;52.384;20.930;2023-04-03T08:00:23;101608.94;;;8.35;43.56
74834;BME280;63361;52.384;20.930;2023-04-03T08:02:49;101607.63;;;9.91;40.31
74834;BME280;63361;52.384;20.930;2023-04-03T08:05:18;101594.00;;;7.21;43.03
74834;BME280;63361;52.384;20.930;2023-04-03T08:07:43;101593.13;;;7.27;43.96
74834;BME280;63361;52.384;20.930;2023-04-03T08:10:09;101595.34;;;6.27;45.48
74834;BME280;63361;52.384;20.930;2023-04-03T08:12:34;101594.75;;;4.87;48.37
74834;BME280;63361;52.384;20.930;2023-04-03T08:15:00;101603.25;;;5.72;47.56
74834;BME280;63361;52.384;20.930;2023-04-03T08:17:26;101588.31;;;6.32;46.44
74834;BME280;63361;52.384;20.930;2023-04-03T08:19:51;101598.97;;;7.89;43.01
74834;BME280;63361;52.384;20.930;2023-04-03T08:22:17;101599.19;;;8.57;41.08
74834;BME280;63361;52.384;20.930;2023-04-03T08:24:42;101602.72;;;8.46;41.46
74834;BME280;63361;52.384;20.930;2023-04-03T08:27:07;101608.19;;;7.28;43.30
74834;BME280;63361;52.384;20.930;2023-04-03T08:29:33;101608.91;;;5.33;47.23
74834;BME280;63361;52.384;20.930;2023-04-03T08:31:58;101614.00;;;6.58;45.18
74834;BME280;63361;52.384;20.930;2023-04-03T08:34:23;101610.84;;;7.16;43.96
74834;BME280;63361;52.384;20.930;2023-04-03T08:36:49;101595.31;;;5.84;45.11
74834;BME280;63361;52.384;20.930;2023-04-03T08:39:14;101597.41;;;7.16;43.43
74834;BME280;63361;52.384;20.930;2023-04-03T08:41:42;101596.25;;;7.24;43.25
74834;BME280;63361;52.384;20.930;2023-04-03T08:44:14;101624.91;;;7.83;42.45
74834;BME280;63361;52.384;20.930;2023-04-03T08:46:47;101621.84;;;7.80;41.97
74834;BME280;63361;52.384;20.930;2023-04-03T08:49:24;101616.75;;;5.84;45.20
74834;BME280;63361;52.384;20.930;2023-04-03T08:51:52;101601.00;;;7.52;42.58
74834;BME280;63361;52.384;20.930;2023-04-03T08:55:27;101625.88;;;8.70;40.04
74834;BME280;63361;52.384;20.930;2023-04-03T08:57:33;101628.84;;;6.79;41.28
74834;BME280;63361;52.384;20.930;2023-04-03T09:00:05;101610.09;;;6.18;42.77
74834;BME280;63361;52.384;20.930;2023-04-03T09:02:35;101607.47;;;6.54;40.96
74834;BME280;63361;52.384;20.930;2023-04-03T09:05:13;101615.47;;;7.09;41.42
74834;BME280;63361;52.384;20.930;2023-04-03T09:07:44;101625.31;;;6.24;42.37
74834;BME280;63361;52.384;20.930;2023-04-03T09:10:13;101626.41;;;5.28;43.30
74834;BME280;63361;52.384;20.930;2023-04-03T09:12:41;101627.97;;;5.05;44.64
74834;BME280;63361;52.384;20.930;2023-04-03T09:23:45;101598.03;;;5.52;41.84
74834;BME280;63361;52.384;20.930;2023-04-03T09:26:18;101618.53;;;6.21;42.69
74834;BME280;63361;52.384;20.930;2023-04-03T09:28:44;101617.06;;;6.98;41.75
74834;BME280;63361;52.384;20.930;2023-04-03T09:31:24;101625.09;;;6.00;42.04
74834;BME280;63361;52.384;20.930;2023-04-03T09:33:52;101624.31;;;4.28;46.92
74834;BME280;63361;52.384;20.930;2023-04-03T09:36:45;101634.06;;;5.25;45.66
74834;BME280;63361;52.384;20.930;2023-04-03T09:39:15;101613.56;;;6.80;42.81
74834;BME280;63361;52.384;20.930;2023-04-03T09:41:43;101620.41;;;6.94;42.18
74834;BME280;63361;52.384;20.930;2023-04-03T09:44:22;101609.66;;;5.71;42.68
74834;BME280;63361;52.384;20.930;2023-04-03T09:46:48;101603.00;;;4.79;45.82
74834;BME280;63361;52.384;20.930;2023-04-03T09:49:13;101600.34;;;6.05;44.27
74834;BME280;63361;52.384;20.930;2023-04-03T09:51:39;101615.19;;;6.01;44.19
74834;BME280;63361;52.384;20.930;2023-04-03T09:57:04;101627.84;;;6.19;43.49
74834;BME280;63361;52.384;20.930;2023-04-03T09:59:31;101630.75;;;5.61;43.12
74834;BME280;63361;52.384;20.930;2023-04-03T10:02:50;101623.13;;;4.11;46.64
74834;BME280;63361;52.384;20.930;2023-04-03T10:05:44;101620.00;;;4.98;45.03
74834;BME280;63361;52.384;20.930;2023-04-03T10:10:38;101600.97;;;6.25;42.80
74834;BME280;63361;52.384;20.930;2023-04-03T10:13:05;101608.00;;;5.07;45.21
74834;BME280;63361;52.384;20.930;2023-04-03T10:15:38;101625.41;;;4.78;44.75
74834;BME280;63361;52.384;20.930;2023-04-03T10:21:14;101616.09;;;4.94;43.88
74834;BME280;63361;52.384;20.930;2023-04-03T10:23:46;101628.78;;;6.67;40.46
74834;BME280;63361;52.384;20.930;2023-04-03T10:29:21;101624.78;;;7.36;39.52
74834;BME280;63361;52.384;20.930;2023-04-03T10:32:39;101612.06;;;7.97;37.10
74834;BME280;63361;52.384;20.930;2023-04-03T10:34:45;101610.88;;;9.60;36.54
74834;BME280;63361;52.384;20.930;2023-04-03T10:40:05;101618.81;;;5.25;42.09
74834;BME280;63361;52.384;20.930;2023-04-03T10:42:50;101628.84;;;4.28;43.50
74834;BME280;63361;52.384;20.930;2023-04-03T10:48:04;101608.13;;;6.86;39.05
74834;BME280;63361;52.384;20.930;2023-04-03T10:50:50;101624.22;;;5.19;42.70
74834;BME280;63361;52.384;20.930;2023-04-03T10:53:29;101614.16;;;6.82;38.96
74834;BME280;63361;52.384;20.930;2023-04-03T10:58:36;101588.44;;;8.10;35.65
74834;BME280;63361;52.384;20.930;2023-04-03T11:01:09;101597.56;;;7.98;36.17
74834;BME280;63361;52.384;20.930;2023-04-03T11:03:43;101598.38;;;8.68;34.37
74834;BME280;63361;52.384;20.930;2023-04-03T11:06:12;101597.56;;;9.25;34.85
74834;BME280;63361;52.384;20.930;2023-04-03T11:09:00;101599.66;;;8.31;36.17
74834;BME280;63361;52.384;20.930;2023-04-03T11:11:33;101603.28;;;6.22;38.57
74834;BME280;63361;52.384;20.930;2023-04-03T11:16:54;101597.06;;;4.71;41.93
74834;BME280;63361;52.384;20.930;2023-04-03T11:19:34;101604.94;;;5.66;41.05
74834;BME280;63361;52.384;20.930;2023-04-03T11:22:10;101589.81;;;7.55;37.60
74834;BME280;63361;52.384;20.930;2023-04-03T11:24:42;101546.19;;;7.29;37.96
74834;BME280;63361;52.384;20.930;2023-04-03T11:27:16;101583.59;;;6.83;39.39
74834;BME280;63361;52.384;20.930;2023-04-03T11:29:43;101593.28;;;5.54;41.58
74834;BME280;63361;52.384;20.930;2023-04-03T11:34:59;101578.06;;;6.05;40.59
74834;BME280;63361;52.384;20.930;2023-04-03T11:37:45;101594.19;;;5.98;40.91
74834;BME280;63361;52.384;20.930;2023-04-03T11:40:26;101584.03;;;4.87;42.22
74834;BME280;63361;52.384;20.930;2023-04-03T11:42:55;101572.88;;;4.97;42.09
74834;BME280;63361;52.384;20.930;2023-04-03T11:45:35;101573.78;;;6.22;40.14
74834;BME280;63361;52.384;20.930;2023-04-03T11:50:46;101541.34;;;7.20;37.59
74834;BME280;63361;52.384;20.930;2023-04-03T11:58:14;101579.63;;;6.12;40.83
74834;BME280;63361;52.384;20.930;2023-04-03T12:05:55;101561.56;;;8.10;36.28
74834;BME280;63361;52.384;20.930;2023-04-03T12:11:26;101569.16;;;6.65;38.30
74834;BME280;63361;52.384;20.930;2023-04-03T12:24:23;101539.56;;;7.55;36.37
74834;BME280;63361;52.384;20.930;2023-04-03T12:35:44;101551.63;;;8.34;35.82
74834;BME280;63361;52.384;20.930;2023-04-03T12:38:33;101564.28;;;9.47;32.82
74834;BME280;63361;52.384;20.930;2023-04-03T12:41:21;101566.44;;;9.00;33.43
74834;BME280;63361;52.384;20.930;2023-04-03T12:46:51;101570.44;;;7.23;36.52
74834;BME280;63361;52.384;20.930;2023-04-03T12:51:46;101569.34;;;7.42;36.85
74834;BME280;63361;52.384;20.930;2023-04-03T12:54:19;101555.72;;;8.77;34.58
74834;BME280;63361;52.384;20.930;2023-04-03T12:56:47;101535.00;;;8.49;35.65
74834;BME280;63361;52.384;20.930;2023-04-03T12:59:21;101564.91;;;7.06;38.06
74834;BME280;63361;52.384;20.930;2023-04-03T13:02:20;101553.72;;;5.81;39.02
74834;BME280;63361;52.384;20.930;2023-04-03T13:04:47;101543.16;;;5.37;40.37
74834;BME280;63361;52.384;20.930;2023-04-03T13:07:21;101568.19;;;5.80;40.59
74834;BME280;63361;52.384;20.930;2023-04-03T13:09:56;101574.84;;;5.96;39.37
74834;BME280;63361;52.384;20.930;2023-04-03T13:12:21;101569.16;;;6.11;38.27
74834;BME280;63361;52.384;20.930;2023-04-03T13:14:58;101552.16;;;7.31;36.42
74834;BME280;63361;52.384;20.930;2023-04-03T13:17:26;101568.81;;;8.45;35.66
74834;BME280;63361;52.384;20.930;2023-04-03T13:19:53;101549.06;;;7.16;36.50
74834;BME280;63361;52.384;20.930;2023-04-03T13:22:36;101555.75;;;6.11;38.72
74834;BME280;63361;52.384;20.930;2023-04-03T13:25:11;101569.03;;;5.99;37.90
74834;BME280;63361;52.384;20.930;2023-04-03T13:27:38;101556.22;;;6.26;37.69
74834;BME280;63361;52.384;20.930;2023-04-03T13:32:53;101560.09;;;7.38;37.17
74834;BME280;63361;52.384;20.930;2023-04-03T13:35:31;101553.28;;;6.64;38.33
74834;BME280;63361;52.384;20.930;2023-04-03T13:38:01;101537.88;;;6.23;38.29
74834;BME280;63361;52.384;20.930;2023-04-03T13:40:27;101549.78;;;5.84;37.77
74834;BME280;63361;52.384;20.930;2023-04-03T13:43:14;101558.31;;;5.99;38.83
74834;BME280;63361;52.384;20.930;2023-04-03T13:45:57;101542.34;;;5.86;38.32
74834;BME280;63361;52.384;20.930;2023-04-03T13:48:23;101538.66;;;5.62;38.25
74834;BME280;63361;52.384;20.930;2023-04-03T13:51:00;101506.03;;;5.47;38.12
74834;BME280;63361;52.384;20.930;2023-04-03T13:53:27;101560.13;;;7.08;37.01
74834;BME280;63361;52.384;20.930;2023-04-03T13:58:31;101533.38;;;6.72;37.65
74834;BME280;63361;52.384;20.930;2023-04-03T14:06:05;101554.59;;;5.75;40.96
74834;BME280;63361;52.384;20.930;2023-04-03T14:08:31;101541.19;;;5.50;41.70
74834;BME280;63361;52.384;20.930;2023-04-03T14:10:57;101547.97;;;5.53;40.99
74834;BME280;63361;52.384;20.930;2023-04-03T14:13:22;101542.44;;;5.23;42.32
74834;BME280;63361;52.384;20.930;2023-04-03T14:15:48;101539.41;;;5.19;43.12
74834;BME280;63361;52.384;20.930;2023-04-03T14:18:16;101546.66;;;5.37;42.02
74834;BME280;63361;52.384;20.930;2023-04-03T14:20:43;101537.78;;;5.12;41.32
74834;BME280;63361;52.384;20.930;2023-04-03T14:23:08;101541.00;;;5.20;42.67
74834;BME280;63361;52.384;20.930;2023-04-03T14:25:34;101556.28;;;5.45;41.99
74834;BME280;63361;52.384;20.930;2023-04-03T14:27:59;101549.13;;;5.39;42.15
74834;BME280;63361;52.384;20.930;2023-04-03T14:30:33;101544.69;;;5.26;42.59